Aérodrome :
LOGIN :

S'inscrire | Disclaimer

   EN    FR    IT 

 










Légende :    VFR   VFR Marginal   IFR   IFR Intensif   IFR Très Intensif
Visi : 
Plafond : 
>= 8 km
>= 3000ft
5 à 8 km
1000 à 3000 ft
1500m à 5 km
500 à 1000 ft
800 à 1500m
200 à 500 ft
< 800m
< 200 ft
Symboles :   Orages  Brouillard  Fortes neiges  Fortes précipitations  Vent > 20 kt
SIGMETs :   Divers  Orages  Givrage  Turbulence  Onde Orograph.  Cendres Volcan.







- Altitude de l'aérodrome : 1411 ft
- Code IATA : GVA


LSGG - Genève Cointrin

DERNIER METAR :
  • 180620Z VRB01KT CAVOK 19/15 Q1019 NOSIG

METARs EXPIRÉS :
  • 180550Z VRB03KT CAVOK 18/15 Q1019 NOSIG
  • 180520Z 28002KT CAVOK 17/14 Q1019 NOSIG
  • 180450Z 32001KT CAVOK 16/14 Q1019 NOSIG
  • 180420Z VRB01KT CAVOK 16/14 Q1019 NOSIG
  • 180350Z VRB01KT CAVOK 16/14 Q1019 NOSIG

TAF AMD TAF LSGG
Valide du 18 à 05h jusqu'au 19 à 09h UTC


180530Z 1805/1909 VRB03KT CAVOK TX29/1815Z TN17/1805Z TN16/1905Z
BECMG 1812/1815 23008KT 9999 SCT050 BKN080
TEMPO 1815/1822 VRB20G30KT 4500 TSRA SCT030CB BKN040
BECMG 1823/1901 NSW
ATIS : +41 22 417 40 81
Pas de NOTAMs connus pour ce terrain.



MET'MAP, la Météo Aéronautique d'un coup d'oeil ! - Copyright ORBIFLY Décembre 2007 - Disclaimer

ORBIFLY MET'MAP TEAM :

Programmation & Développement : Alexandra Zaïnal
Conception & Développement : Baudouin d'Aumeries
Co-Programmation & Développement : Marc-Olivier Méhu
Soutien technique & logistique : Manuel Goepfert

Contact : metmap@orbifly.com




SOURCES & CREDITS :

   NOAA